createdAt,value
2022-10-14T00:00:09.613Z,11.80
2022-10-14T00:02:36.453Z,11.90
2022-10-14T00:05:03.362Z,11.90
2022-10-14T00:07:31.494Z,11.80
2022-10-14T00:09:58.306Z,11.80
2022-10-14T00:12:25.084Z,11.80
2022-10-14T00:14:52.010Z,11.90
2022-10-14T00:17:33.792Z,11.80
2022-10-14T00:20:09.897Z,11.80
2022-10-14T00:31:04.551Z,11.80
2022-10-14T01:19:28.584Z,11.80
2022-10-14T01:23:23.159Z,11.90
2022-10-14T01:34:23.369Z,12.00
2022-10-14T01:37:01.856Z,11.90
2022-10-14T01:39:41.619Z,12.00
2022-10-14T01:42:33.574Z,11.90
2022-10-14T01:45:09.610Z,11.90
2022-10-14T01:47:54.155Z,11.90
2022-10-14T01:50:25.744Z,11.80
2022-10-14T01:53:40.050Z,11.80
2022-10-14T01:56:21.032Z,11.80
2022-10-14T01:59:16.762Z,11.80
2022-10-14T02:01:44.618Z,11.80
2022-10-14T02:04:27.650Z,11.70
2022-10-14T02:07:46.743Z,11.70
2022-10-14T02:10:52.888Z,11.60
2022-10-14T02:42:10.522Z,11.50
2022-10-14T02:56:28.441Z,11.50
2022-10-14T02:59:33.070Z,11.50
2022-10-14T03:06:16.635Z,11.50
2022-10-14T03:09:32.632Z,11.50
2022-10-14T03:12:02.292Z,11.50
2022-10-14T03:14:29.441Z,11.50
2022-10-14T03:16:57.016Z,11.50
2022-10-14T03:19:24.557Z,11.50
2022-10-14T03:21:55.043Z,11.50
2022-10-14T03:24:24.920Z,11.50
2022-10-14T03:27:32.606Z,11.50
2022-10-14T03:30:03.546Z,11.50
2022-10-14T03:32:39.659Z,11.50
2022-10-14T03:38:12.397Z,11.50
2022-10-14T03:40:54.363Z,11.50
2022-10-14T03:54:38.187Z,11.50
2022-10-14T03:57:07.843Z,11.50
2022-10-14T03:59:41.189Z,11.50
2022-10-14T04:02:21.847Z,11.60
2022-10-14T04:04:49.415Z,11.60
2022-10-14T04:07:16.813Z,11.60
2022-10-14T04:09:43.884Z,11.60
2022-10-14T04:12:20.314Z,11.60
2022-10-14T04:14:47.851Z,11.60
2022-10-14T04:20:46.924Z,11.60
2022-10-14T04:23:15.032Z,11.50
2022-10-14T04:25:48.136Z,11.50
2022-10-14T04:28:38.172Z,11.60
2022-10-14T04:31:06.287Z,11.60
2022-10-14T04:33:36.093Z,11.60
2022-10-14T04:36:06.256Z,11.60
2022-10-14T04:38:34.668Z,11.60
2022-10-14T04:41:19.611Z,11.60
2022-10-14T04:43:49.907Z,11.60
2022-10-14T04:46:16.939Z,11.60
2022-10-14T04:48:55.530Z,11.60
2022-10-14T04:58:58.983Z,11.60
2022-10-14T05:01:33.677Z,11.60
2022-10-14T05:04:01.683Z,11.60
2022-10-14T05:06:46.884Z,11.60
2022-10-14T05:09:36.781Z,11.60
2022-10-14T05:17:21.583Z,11.60
2022-10-14T05:24:47.248Z,11.60
2022-10-14T05:27:18.954Z,11.70
2022-10-14T05:33:32.440Z,11.70
2022-10-14T05:35:57.702Z,11.70
2022-10-14T05:42:43.643Z,11.70
2022-10-14T05:45:57.833Z,11.70
2022-10-14T05:49:23.764Z,11.70
2022-10-14T05:55:33.329Z,11.80
2022-10-14T05:58:02.422Z,11.90
2022-10-14T06:01:24.431Z,11.90
2022-10-14T06:10:12.168Z,11.90
2022-10-14T06:12:39.506Z,11.90
2022-10-14T06:17:53.870Z,11.90
2022-10-14T06:20:20.719Z,12.00
2022-10-14T06:22:47.579Z,12.00
2022-10-14T06:25:14.553Z,12.10
2022-10-14T06:27:41.397Z,12.10
2022-10-14T06:30:09.036Z,12.20
2022-10-14T06:32:35.947Z,12.20
2022-10-14T06:35:02.792Z,12.40
2022-10-14T06:37:29.686Z,12.40
2022-10-14T06:39:56.649Z,12.60
2022-10-14T06:42:23.976Z,12.60
2022-10-14T06:44:51.025Z,12.70
2022-10-14T06:47:17.954Z,12.70
2022-10-14T06:49:44.956Z,12.80
2022-10-14T06:52:11.881Z,13.00
2022-10-14T06:54:39.948Z,12.90
2022-10-14T06:57:07.525Z,12.90
2022-10-14T06:59:34.451Z,12.90
2022-10-14T07:02:01.608Z,12.90
2022-10-14T07:04:28.501Z,12.90
2022-10-14T07:06:57.807Z,12.90
2022-10-14T07:09:25.233Z,13.10
2022-10-14T07:11:52.083Z,13.40
2022-10-14T07:14:18.949Z,13.70
2022-10-14T07:16:46.154Z,14.00
2022-10-14T07:19:13.487Z,14.30
2022-10-14T07:21:40.487Z,15.00
2022-10-14T07:24:08.549Z,16.80
2022-10-14T07:29:34.010Z,20.60
2022-10-14T07:32:08.629Z,22.90
2022-10-14T07:34:35.953Z,23.40
2022-10-14T07:37:03.435Z,23.60
2022-10-14T07:39:36.407Z,22.90
2022-10-14T07:42:03.296Z,23.00
2022-10-14T07:44:30.091Z,22.60
2022-10-14T07:46:57.107Z,23.20
2022-10-14T07:49:23.957Z,23.80
2022-10-14T07:51:51.211Z,24.50
2022-10-14T07:54:23.472Z,25.20
2022-10-14T07:56:50.631Z,25.60
2022-10-14T07:59:19.693Z,25.50
2022-10-14T08:01:51.376Z,24.60
2022-10-14T08:04:19.160Z,23.50
2022-10-14T08:06:48.776Z,23.20
2022-10-14T08:09:16.871Z,23.30
2022-10-14T08:11:44.746Z,22.70
2022-10-14T08:14:12.043Z,22.70
2022-10-14T08:16:39.470Z,22.60
2022-10-14T08:19:14.889Z,23.20
2022-10-14T08:21:43.326Z,23.60
2022-10-14T08:24:15.474Z,24.80
2022-10-14T08:26:53.992Z,25.60
2022-10-14T08:29:24.833Z,26.70
2022-10-14T08:31:52.686Z,26.00
2022-10-14T08:34:24.387Z,25.80
2022-10-14T08:36:52.016Z,27.30
2022-10-14T08:39:19.930Z,26.40
2022-10-14T08:42:07.977Z,27.60
2022-10-14T08:44:57.993Z,27.00
2022-10-14T08:47:31.539Z,27.50
2022-10-14T08:50:19.487Z,27.90
2022-10-14T08:53:12.397Z,27.40
2022-10-14T08:56:00.632Z,25.40
2022-10-14T08:58:47.367Z,27.30
2022-10-14T09:01:33.303Z,28.10
2022-10-14T09:04:04.900Z,27.90
2022-10-14T09:06:38.127Z,27.10
2022-10-14T09:09:26.451Z,28.20
2022-10-14T09:12:07.171Z,29.00
2022-10-14T09:14:37.670Z,28.30
2022-10-14T09:17:19.436Z,26.60
2022-10-14T09:19:59.006Z,25.10
2022-10-14T09:22:27.498Z,24.20
2022-10-14T09:24:54.465Z,24.20
2022-10-14T09:27:23.155Z,23.50
2022-10-14T09:29:59.137Z,23.10
2022-10-14T09:32:34.355Z,23.40
2022-10-14T09:35:01.716Z,24.00
2022-10-14T09:37:29.877Z,24.30
2022-10-14T09:40:01.215Z,23.80
2022-10-14T09:42:37.204Z,23.70
2022-10-14T09:45:14.485Z,25.10
2022-10-14T09:47:57.906Z,25.10
2022-10-14T09:50:29.560Z,25.90
2022-10-14T09:53:20.623Z,27.10
2022-10-14T09:55:52.286Z,27.20
2022-10-14T09:58:31.146Z,26.30
2022-10-14T10:00:59.920Z,26.30
2022-10-14T10:03:35.759Z,26.40
2022-10-14T10:06:08.669Z,26.60
2022-10-14T10:08:38.433Z,25.60
2022-10-14T10:11:14.064Z,25.40
2022-10-14T10:13:45.510Z,25.40
2022-10-14T10:16:22.264Z,26.20
2022-10-14T10:18:51.118Z,26.20
2022-10-14T10:21:27.573Z,26.60
2022-10-14T10:23:57.457Z,28.00
2022-10-14T10:26:32.185Z,29.30
2022-10-14T10:29:02.646Z,27.70
2022-10-14T10:32:01.934Z,27.40
2022-10-14T10:34:31.576Z,28.00
2022-10-14T10:37:08.532Z,29.10
2022-10-14T10:40:09.432Z,29.60
2022-10-14T10:42:57.055Z,28.40
2022-10-14T10:45:46.101Z,27.30
2022-10-14T10:48:24.611Z,27.30
2022-10-14T10:51:09.695Z,27.60
2022-10-14T10:54:01.569Z,27.80
2022-10-14T10:56:50.694Z,28.10
2022-10-14T10:59:23.327Z,27.90
2022-10-14T11:02:27.442Z,27.50
2022-10-14T11:05:12.226Z,28.70
2022-10-14T11:08:19.740Z,28.40
2022-10-14T11:11:31.697Z,27.50
2022-10-14T11:14:30.778Z,27.30
2022-10-14T11:17:12.596Z,27.20
2022-10-14T11:20:04.309Z,26.80
2022-10-14T11:22:51.049Z,26.60
2022-10-14T11:25:22.258Z,27.20
2022-10-14T11:28:13.422Z,26.60
2022-10-14T11:31:02.102Z,26.60
2022-10-14T11:33:39.744Z,26.50
2022-10-14T11:36:25.475Z,26.50
2022-10-14T11:38:55.282Z,26.60
2022-10-14T11:41:57.446Z,26.20
2022-10-14T11:44:40.523Z,26.70
2022-10-14T11:47:25.933Z,25.60
2022-10-14T11:50:11.565Z,24.80
2022-10-14T11:52:50.298Z,24.20
2022-10-14T11:55:23.611Z,24.10
2022-10-14T11:57:50.526Z,23.00
2022-10-14T12:00:22.168Z,22.40
2022-10-14T12:03:02.992Z,22.30
2022-10-14T12:06:11.040Z,22.30
2022-10-14T12:09:18.572Z,22.50
2022-10-14T12:11:56.542Z,22.90
2022-10-14T12:14:55.444Z,23.10
2022-10-14T12:18:04.143Z,22.80
2022-10-14T12:20:53.168Z,22.60
2022-10-14T12:23:34.497Z,22.50
2022-10-14T12:26:19.812Z,22.30
2022-10-14T12:28:47.933Z,21.80
2022-10-14T12:32:04.575Z,21.60
2022-10-14T12:34:36.149Z,21.50
2022-10-14T12:37:31.736Z,21.10
2022-10-14T12:40:06.854Z,20.80
2022-10-14T12:42:57.877Z,20.60
2022-10-14T12:45:27.594Z,20.40
2022-10-14T12:48:19.359Z,20.20
2022-10-14T12:50:48.565Z,20.30
2022-10-14T12:53:23.747Z,20.10
2022-10-14T12:55:56.776Z,20.00
2022-10-14T12:58:43.954Z,19.60
2022-10-14T13:01:20.023Z,19.70
2022-10-14T13:03:55.322Z,19.80
2022-10-14T13:06:40.706Z,19.70
2022-10-14T13:09:15.226Z,19.60
2022-10-14T13:11:52.440Z,19.60
2022-10-14T13:14:32.233Z,19.50
2022-10-14T13:17:00.449Z,19.40
2022-10-14T13:19:33.499Z,19.30
2022-10-14T13:22:33.149Z,19.20
2022-10-14T13:25:20.406Z,19.30
2022-10-14T13:28:00.709Z,19.20
2022-10-14T13:31:00.315Z,19.30
2022-10-14T13:33:42.659Z,19.10
2022-10-14T13:36:15.807Z,19.10
2022-10-14T13:38:51.912Z,18.80
2022-10-14T13:41:30.642Z,18.70
2022-10-14T13:43:59.863Z,18.50
2022-10-14T13:46:37.287Z,18.40
2022-10-14T13:49:07.139Z,18.10
2022-10-14T13:51:55.160Z,17.80
2022-10-14T13:54:24.839Z,17.70
2022-10-14T13:57:35.052Z,17.60
2022-10-14T14:02:39.640Z,17.30
2022-10-14T14:05:14.431Z,17.20
2022-10-14T14:10:30.634Z,17.10
2022-10-14T14:12:59.698Z,16.70
2022-10-14T14:15:29.603Z,16.30
2022-10-14T14:17:56.533Z,15.90
2022-10-14T14:20:28.748Z,15.70
2022-10-14T14:22:58.781Z,15.40
2022-10-14T14:25:40.238Z,15.10
2022-10-14T14:28:15.528Z,14.90
2022-10-14T14:30:54.568Z,14.70
2022-10-14T14:33:34.376Z,14.70
2022-10-14T14:36:04.243Z,14.60
2022-10-14T14:38:34.080Z,14.50
2022-10-14T14:41:25.577Z,14.40
2022-10-14T14:44:24.020Z,14.40
2022-10-14T14:46:47.451Z,14.30
2022-10-14T14:49:18.621Z,14.30
2022-10-14T14:51:46.023Z,14.40
2022-10-14T14:54:19.152Z,14.40
2022-10-14T14:57:00.649Z,14.40
2022-10-14T14:59:32.011Z,14.50
2022-10-14T15:02:01.279Z,14.40
2022-10-14T15:04:31.554Z,14.40
2022-10-14T15:07:21.518Z,14.40
2022-10-14T15:09:59.842Z,14.40
2022-10-14T15:12:42.549Z,14.30
2022-10-14T15:15:36.815Z,14.40
2022-10-14T15:18:26.206Z,14.40
2022-10-14T15:21:03.991Z,14.30
2022-10-14T15:23:38.279Z,14.30
2022-10-14T15:26:21.786Z,14.30
2022-10-14T15:29:08.680Z,14.30
2022-10-14T15:31:37.475Z,14.40
2022-10-14T15:34:05.804Z,14.40
2022-10-14T15:36:34.452Z,14.30
2022-10-14T15:39:02.535Z,14.30
2022-10-14T15:41:29.667Z,14.30
2022-10-14T15:43:56.656Z,14.30
2022-10-14T15:46:42.090Z,14.30
2022-10-14T15:49:20.390Z,14.30
2022-10-14T15:51:47.691Z,14.30
2022-10-14T15:54:16.200Z,14.30
2022-10-14T15:56:43.160Z,14.30
2022-10-14T15:59:10.204Z,14.30
2022-10-14T16:01:38.363Z,14.30
2022-10-14T16:04:10.627Z,14.20
2022-10-14T16:06:37.490Z,14.20
2022-10-14T16:09:04.614Z,14.20
2022-10-14T16:11:31.616Z,14.20
2022-10-14T16:13:58.548Z,14.20
2022-10-14T16:16:45.898Z,14.20
2022-10-14T16:19:13.286Z,14.10
2022-10-14T16:21:40.428Z,14.20
2022-10-14T16:26:40.011Z,14.10
2022-10-14T16:29:07.035Z,14.10
2022-10-14T16:31:33.969Z,14.10
2022-10-14T16:34:01.923Z,14.00
2022-10-14T16:36:29.568Z,14.00
2022-10-14T16:38:56.877Z,14.00
2022-10-14T16:41:24.498Z,14.00
2022-10-14T16:43:51.445Z,14.00
2022-10-14T16:46:18.412Z,13.90
2022-10-14T16:48:45.339Z,14.00
2022-10-14T16:51:12.420Z,13.90
2022-10-14T16:53:42.200Z,14.00
2022-10-14T16:56:36.953Z,14.00
2022-10-14T16:59:04.595Z,14.00
2022-10-14T17:01:31.785Z,14.10
2022-10-14T17:03:58.913Z,14.10
2022-10-14T17:06:26.763Z,14.10
2022-10-14T17:08:54.232Z,14.10
2022-10-14T17:11:21.619Z,14.10
2022-10-14T17:13:52.375Z,14.00
2022-10-14T17:16:19.365Z,14.00
2022-10-14T17:18:46.309Z,14.00
2022-10-14T17:21:13.666Z,13.90
2022-10-14T17:23:42.434Z,13.90
2022-10-14T17:26:12.303Z,13.90
2022-10-14T17:28:39.792Z,13.90
2022-10-14T17:31:11.683Z,13.80
2022-10-14T17:33:39.962Z,13.80
2022-10-14T17:36:08.988Z,13.80
2022-10-14T17:38:36.168Z,13.80
2022-10-14T17:41:08.753Z,13.80
2022-10-14T17:43:36.914Z,13.80
2022-10-14T17:46:05.493Z,13.80
2022-10-14T17:48:34.041Z,13.80
2022-10-14T17:51:02.180Z,13.80
2022-10-14T17:53:29.621Z,13.80
2022-10-14T17:55:59.159Z,13.80
2022-10-14T17:58:26.152Z,13.80
2022-10-14T18:00:56.182Z,13.80
2022-10-14T18:03:23.118Z,13.80
2022-10-14T18:05:50.004Z,13.80
2022-10-14T18:08:16.974Z,13.80
2022-10-14T18:10:43.987Z,13.80
2022-10-14T18:13:10.878Z,13.80
2022-10-14T18:15:37.776Z,13.80
2022-10-14T18:18:05.073Z,13.80
2022-10-14T18:20:33.109Z,13.80
2022-10-14T18:23:02.923Z,13.80
2022-10-14T18:25:30.020Z,13.80
2022-10-14T18:27:56.864Z,13.70
2022-10-14T18:30:24.053Z,13.70
2022-10-14T18:32:55.111Z,13.70
2022-10-14T18:35:22.412Z,13.70
2022-10-14T18:37:49.383Z,13.70
2022-10-14T18:40:18.360Z,13.70
2022-10-14T18:42:45.256Z,13.70
2022-10-14T18:45:12.160Z,13.70
2022-10-14T18:47:39.014Z,13.70
2022-10-14T18:50:06.112Z,13.70
2022-10-14T18:52:33.286Z,13.70
2022-10-14T18:55:00.141Z,13.70
2022-10-14T18:57:27.423Z,13.70
2022-10-14T18:59:54.303Z,13.70
2022-10-14T19:02:21.431Z,13.70
2022-10-14T19:04:48.744Z,13.70
2022-10-14T19:07:15.608Z,13.70
2022-10-14T19:09:42.473Z,13.70
2022-10-14T19:12:27.812Z,13.70
2022-10-14T19:14:54.717Z,13.70
2022-10-14T19:17:21.574Z,13.70
2022-10-14T19:19:48.701Z,13.70
2022-10-14T19:22:15.607Z,13.80
2022-10-14T19:24:42.545Z,13.80
2022-10-14T19:27:09.421Z,13.80
2022-10-14T19:29:36.406Z,13.80
2022-10-14T19:32:03.258Z,13.90
2022-10-14T19:34:30.218Z,13.90
2022-10-14T19:37:00.142Z,13.90
2022-10-14T19:39:27.032Z,13.90
2022-10-14T19:41:53.895Z,13.90
2022-10-14T19:44:20.848Z,13.90
2022-10-14T19:46:47.866Z,13.90
2022-10-14T19:49:15.756Z,13.90
2022-10-14T19:51:42.605Z,14.00
2022-10-14T19:54:11.142Z,14.00
2022-10-14T19:56:38.034Z,14.00
2022-10-14T19:59:04.884Z,14.00
2022-10-14T20:01:31.900Z,14.00
2022-10-14T20:04:01.248Z,13.90
2022-10-14T20:06:31.764Z,13.90
2022-10-14T20:08:58.607Z,13.90
2022-10-14T20:11:25.741Z,13.90
2022-10-14T20:13:52.597Z,14.00
2022-10-14T20:16:19.562Z,13.90
2022-10-14T20:18:46.459Z,13.90
2022-10-14T20:21:15.625Z,13.90
2022-10-14T20:23:43.012Z,13.90
2022-10-14T20:26:15.468Z,13.90
2022-10-14T20:28:42.853Z,13.90
2022-10-14T20:31:12.021Z,13.90
2022-10-14T20:33:38.891Z,13.90
2022-10-14T20:36:14.779Z,13.90
2022-10-14T20:38:42.549Z,13.90
2022-10-14T20:41:18.238Z,13.90
2022-10-14T20:43:46.168Z,13.80
2022-10-14T20:46:13.595Z,13.80
2022-10-14T20:48:40.598Z,13.90
2022-10-14T20:51:09.834Z,13.80
2022-10-14T20:53:36.893Z,13.80
2022-10-14T20:56:10.092Z,13.80
2022-10-14T20:58:37.464Z,13.80
2022-10-14T21:01:16.233Z,13.80
2022-10-14T21:03:45.523Z,13.80
2022-10-14T21:06:15.411Z,13.80
2022-10-14T21:08:42.658Z,13.80
2022-10-14T21:11:15.326Z,13.80
2022-10-14T21:13:55.734Z,13.80
2022-10-14T21:16:24.479Z,13.80
2022-10-14T21:18:58.256Z,13.90
2022-10-14T21:21:28.100Z,13.90
2022-10-14T21:23:55.673Z,13.90
2022-10-14T21:26:23.260Z,14.00
2022-10-14T21:28:50.186Z,14.00
2022-10-14T21:31:19.317Z,14.00
2022-10-14T21:33:47.841Z,13.90
2022-10-14T21:36:16.512Z,13.90
2022-10-14T21:38:43.597Z,13.90
2022-10-14T21:41:12.005Z,13.80
2022-10-14T21:43:39.816Z,13.80
2022-10-14T21:46:09.731Z,13.80
2022-10-14T21:48:36.770Z,13.80
2022-10-14T21:51:13.116Z,13.80
2022-10-14T21:53:41.481Z,13.80
2022-10-14T21:56:09.784Z,13.80
2022-10-14T21:58:37.065Z,13.80
2022-10-14T22:01:15.926Z,13.80
2022-10-14T22:03:43.923Z,13.70
2022-10-14T22:06:14.672Z,13.70
2022-10-14T22:08:43.740Z,13.70
2022-10-14T22:11:23.196Z,13.70
2022-10-14T22:13:51.424Z,13.70
2022-10-14T22:16:18.732Z,13.70
2022-10-14T22:18:47.157Z,13.60
2022-10-14T22:21:15.825Z,13.60
2022-10-14T22:23:42.929Z,13.60
2022-10-14T22:26:12.848Z,13.50
2022-10-14T22:28:40.043Z,13.50
2022-10-14T22:31:10.207Z,13.40
2022-10-14T22:33:38.587Z,13.40
2022-10-14T22:36:14.875Z,13.40
2022-10-14T22:38:45.627Z,13.40
2022-10-14T22:41:14.129Z,13.40
2022-10-14T22:43:49.460Z,13.40
2022-10-14T22:46:20.178Z,13.30
2022-10-14T22:48:56.073Z,13.30
2022-10-14T22:51:41.610Z,13.30
2022-10-14T22:54:09.471Z,13.20
2022-10-14T22:56:36.781Z,13.20
2022-10-14T22:59:06.894Z,13.20
2022-10-14T23:01:34.482Z,13.20
2022-10-14T23:04:02.241Z,13.10
2022-10-14T23:06:29.617Z,13.10
2022-10-14T23:08:57.472Z,13.10
2022-10-14T23:11:25.538Z,13.10
2022-10-14T23:13:52.939Z,13.10
2022-10-14T23:16:22.297Z,13.00
2022-10-14T23:18:49.694Z,13.10
2022-10-14T23:21:28.083Z,13.00
2022-10-14T23:23:57.680Z,13.10
2022-10-14T23:26:26.702Z,13.00
2022-10-14T23:28:56.076Z,13.00
2022-10-14T23:31:28.673Z,13.00
2022-10-14T23:33:58.327Z,12.90
2022-10-14T23:36:25.555Z,12.90
2022-10-14T23:38:52.857Z,12.80
2022-10-14T23:41:22.184Z,12.80
2022-10-14T23:43:50.325Z,12.80
2022-10-14T23:46:18.092Z,12.80
2022-10-14T23:48:51.478Z,12.70
2022-10-14T23:51:27.856Z,12.70
2022-10-14T23:53:54.660Z,12.60
2022-10-14T23:56:21.537Z,12.60
2022-10-14T23:58:48.508Z,12.60
